ESSB/BMA METAR and TAF weather

Enter ICAO airport designator
Station Type Date Time Source
ESSB METAR 2018/01/24 07:20 UTC NOAA

ESSB 240720Z 21009KT 9999 BKN005 02/01 Q0997 R30/690163


Station Type Date Time Source
ESSB Decoded METAR 2018/01/24 07:20 UTC NOAA

Stockholm / Bromma, Sweden (ESSB) 59-21N 017-57E 14M
Jan 24, 2018 - 02:20 AM EST / 2018.01.24 0720 UTC
Wind: from the SSW (210 degrees) at 10 MPH (9 KT):0
Visibility: greater than 7 mile(s):0
Sky conditions: mostly cloudy
Temperature: 35 F (2 C)
Windchill: 26 F (-3 C):1
Dew Point: 33 F (1 C)
Relative Humidity: 93%
Pressure (altimeter): 29.44 in. Hg (0997 hPa)
ob: ESSB 240720Z 21009KT 9999 BKN005 02/01 Q0997 R30/690163
cycle: 7

Station Type Date Time Source
ESSB TAF 2017/03/27 06:35 UTC NOAA

TAF ESSB 270530Z 2706/2724 27008KT CAVOK
BECMG 2710/2713 29015G25KT


Example: see airport list